Time;durP1;ratioP1;P1;durP2;ratioP2;P2;SDS_P1;SDS_P2;PMS_P1;PMS_P2;Temp;Humidity;BMP_temperature;BMP_pressure;BME280_temperature;BME280_humidity;BME280_pressure;Samples;Min_cycle;Max_cycle;Signal;HPM_P1;HPM_P2
2021/11/08 00:01:00;;;;;;;18.50;5.53;;;8.20;99.90;;;;;;5057160;28;20479;-84
2021/11/08 00:03:30;;;;;;;25.42;5.80;;;8.30;99.90;;;;;;5053370;28;20390;-84
2021/11/08 00:05:58;;;;;;;21.20;5.32;;;8.20;99.90;;;;;;5034234;28;20402;-82
2021/11/08 00:08:24;;;;;;;18.25;5.22;;;8.20;99.90;;;;;;5051588;28;20408;-83
2021/11/08 00:10:50;;;;;;;21.33;5.35;;;8.20;99.90;;;;;;5050590;28;20407;-83
2021/11/08 00:13:16;;;;;;;22.97;5.40;;;8.20;99.90;;;;;;5033094;28;20387;-84
2021/11/08 00:21:00;;;;;;;21.08;5.13;;;8.00;99.90;;;;;;5031160;28;20400;-84
2021/11/08 00:23:28;;;;;;;18.58;4.40;;;8.10;99.90;;;;;;5051576;28;20406;-84
2021/11/08 00:25:55;;;;;;;22.27;4.88;;;8.10;99.90;;;;;;5050192;28;20908;-84
2021/11/08 00:28:22;;;;;;;19.80;5.03;;;8.10;99.90;;;;;;5033047;28;20416;-83
2021/11/08 00:30:52;;;;;;;19.70;4.70;;;8.10;99.90;;;;;;5032128;28;20487;-84
2021/11/08 00:33:20;;;;;;;18.50;4.82;;;8.10;99.90;;;;;;5032795;28;20391;-84
2021/11/08 00:36:05;;;;;;;18.52;5.30;;;8.10;99.90;;;;;;5032393;28;20461;-84
2021/11/08 00:38:31;;;;;;;16.67;5.25;;;8.20;99.90;;;;;;5071399;28;20389;-84
2021/11/08 00:40:58;;;;;;;20.17;5.30;;;8.30;99.90;;;;;;5061570;28;20364;-84
2021/11/08 00:43:25;;;;;;;16.48;4.60;;;8.10;99.90;;;;;;5050345;28;20395;-85
2021/11/08 00:45:51;;;;;;;20.83;5.20;;;8.20;99.90;;;;;;5015514;28;20384;-84
2021/11/08 00:48:19;;;;;;;17.20;5.03;;;8.20;99.90;;;;;;5049833;28;20453;-84
2021/11/08 00:50:49;;;;;;;18.73;4.82;;;8.10;99.90;;;;;;5050108;28;20939;-83
2021/11/08 00:53:15;;;;;;;17.10;5.30;;;8.10;99.90;;;;;;5032788;28;20605;-85
2021/11/08 00:55:42;;;;;;;17.48;4.75;;;8.10;99.90;;;;;;5049355;28;20403;-84
2021/11/08 00:58:15;;;;;;;17.50;4.65;;;8.20;99.90;;;;;;5032800;28;20466;-84
2021/11/08 01:00:41;;;;;;;16.98;4.90;;;8.10;99.90;;;;;;5032117;28;20407;-83
2021/11/08 01:03:08;;;;;;;18.73;5.22;;;8.20;99.90;;;;;;5049808;28;20438;-84
2021/11/08 01:05:34;;;;;;;15.10;4.40;;;8.20;99.90;;;;;;5049889;28;20435;-84
2021/11/08 01:08:00;;;;;;;18.10;4.72;;;8.20;99.90;;;;;;5050456;28;20411;-84
2021/11/08 01:10:26;;;;;;;15.38;4.93;;;8.30;99.90;;;;;;5031506;28;20965;-83
2021/11/08 01:12:52;;;;;;;17.10;4.57;;;8.30;99.90;;;;;;5032415;28;20400;-84
2021/11/08 01:15:18;;;;;;;18.02;4.95;;;8.30;99.90;;;;;;5031964;28;20442;-84
2021/11/08 01:17:44;;;;;;;18.35;4.90;;;8.30;99.90;;;;;;5032435;28;20734;-84
2021/11/08 01:20:11;;;;;;;16.77;4.78;;;8.30;99.90;;;;;;5032208;28;20388;-83
2021/11/08 01:22:38;;;;;;;16.83;4.75;;;8.20;99.90;;;;;;5031332;28;20993;-84
2021/11/08 01:25:05;;;;;;;17.67;5.23;;;8.20;99.90;;;;;;5049201;28;20407;-85
2021/11/08 01:27:40;;;;;;;18.70;4.55;;;8.20;99.90;;;;;;5031855;28;20505;-84
2021/11/08 01:30:12;;;;;;;17.48;4.90;;;8.30;99.90;;;;;;5031627;28;20921;-84
2021/11/08 01:32:38;;;;;;;20.33;5.10;;;8.30;99.90;;;;;;5049171;28;20475;-84
2021/11/08 01:35:04;;;;;;;18.53;4.47;;;8.40;99.90;;;;;;5050147;28;20384;-82
2021/11/08 01:37:30;;;;;;;17.35;4.70;;;8.30;99.90;;;;;;5031785;28;20773;-84
2021/11/08 01:39:57;;;;;;;19.10;4.63;;;8.30;99.90;;;;;;5031286;28;20387;-84
2021/11/08 01:42:23;;;;;;;15.73;4.63;;;8.30;99.90;;;;;;5032082;28;20395;-84
2021/11/08 01:44:49;;;;;;;18.23;4.47;;;8.30;99.90;;;;;;5031795;28;20380;-85
2021/11/08 01:47:14;;;;;;;18.37;4.87;;;8.30;99.90;;;;;;5049432;28;20410;-84
2021/11/08 01:49:41;;;;;;;21.02;5.03;;;8.30;99.90;;;;;;5049437;28;20392;-83
2021/11/08 01:52:11;;;;;;;23.87;5.37;;;8.40;99.90;;;;;;5049478;28;20379;-84
2021/11/08 01:54:38;;;;;;;19.17;5.10;;;8.40;99.90;;;;;;5048481;28;20387;-83
2021/11/08 01:57:05;;;;;;;25.45;5.38;;;8.40;99.90;;;;;;5031276;28;20872;-84
2021/11/08 01:59:32;;;;;;;19.27;4.93;;;8.40;99.90;;;;;;5031243;28;20387;-84
2021/11/08 02:01:59;;;;;;;19.00;4.57;;;8.30;99.90;;;;;;5030552;28;20568;-83
2021/11/08 02:04:26;;;;;;;19.50;5.15;;;8.30;99.90;;;;;;5030983;28;20408;-83
2021/11/08 02:06:52;;;;;;;16.55;4.95;;;8.30;99.90;;;;;;5030788;28;20917;-84
2021/11/08 02:09:18;;;;;;;20.58;5.07;;;8.30;99.90;;;;;;5048337;28;20394;-84
2021/11/08 02:11:44;;;;;;;20.40;5.45;;;8.20;99.90;;;;;;5048994;28;20808;-83
2021/11/08 02:14:09;;;;;;;18.17;4.97;;;8.20;99.90;;;;;;5030687;28;20819;-84
2021/11/08 02:16:36;;;;;;;22.53;5.67;;;8.20;99.90;;;;;;5031076;28;20387;-84
2021/11/08 02:19:05;;;;;;;19.08;5.07;;;8.20;99.90;;;;;;5031335;28;20882;-83
2021/11/08 02:21:30;;;;;;;17.38;5.05;;;8.10;99.90;;;;;;5030952;28;20437;-83
2021/11/08 02:23:57;;;;;;;19.75;5.13;;;8.10;99.90;;;;;;5048148;28;21209;-83
2021/11/08 02:26:23;;;;;;;22.70;5.37;;;8.20;99.90;;;;;;5049104;28;20412;-83
2021/11/08 02:28:52;;;;;;;19.93;5.27;;;8.30;99.90;;;;;;5049304;28;20406;-84
2021/11/08 02:31:22;;;;;;;19.47;5.03;;;8.30;99.90;;;;;;5030758;28;20395;-82
2021/11/08 02:33:51;;;;;;;22.93;5.37;;;8.30;99.90;;;;;;5048027;28;20520;-83
2021/11/08 02:36:18;;;;;;;19.17;5.07;;;8.30;99.90;;;;;;5029838;28;20395;-84
2021/11/08 02:38:48;;;;;;;22.80;5.32;;;8.30;99.90;;;;;;5048772;28;20480;-84
2021/11/08 02:41:15;;;;;;;17.77;4.90;;;8.30;99.90;;;;;;5048433;28;20928;-84
2021/11/08 02:43:41;;;;;;;25.50;5.30;;;8.30;99.90;;;;;;5030626;28;20490;-83
2021/11/08 02:46:13;;;;;;;20.95;5.15;;;8.30;99.90;;;;;;5029746;28;20419;-83
2021/11/08 02:48:42;;;;;;;21.05;5.10;;;8.30;99.90;;;;;;5031092;28;20403;-84
2021/11/08 02:51:29;;;;;;;21.52;5.28;;;8.30;99.90;;;;;;5048580;28;20734;-84
2021/11/08 02:54:05;;;;;;;21.50;5.38;;;8.20;99.90;;;;;;5030349;28;20422;-84
2021/11/08 02:56:31;;;;;;;21.27;5.28;;;8.30;99.90;;;;;;5028730;28;20396;-83
2021/11/08 02:58:57;;;;;;;20.27;5.25;;;8.30;99.90;;;;;;5011912;28;20389;-84
2021/11/08 03:01:28;;;;;;;18.83;5.60;;;8.30;99.90;;;;;;5029582;28;20415;-84
2021/11/08 03:03:59;;;;;;;16.83;5.00;;;8.30;99.90;;;;;;5047619;28;20482;-84
2021/11/08 03:06:30;;;;;;;20.80;5.38;;;8.30;99.90;;;;;;5030689;28;20478;-83
2021/11/08 03:08:58;;;;;;;18.02;5.55;;;8.30;99.90;;;;;;5047449;28;20833;-83
2021/11/08 03:11:24;;;;;;;29.55;5.97;;;8.30;99.90;;;;;;5047555;28;20434;-84
2021/11/08 03:19:23;;;;;;;20.75;6.05;;;8.40;99.90;;;;;;5048328;28;20532;-85
2021/11/08 03:21:50;;;;;;;20.30;5.53;;;8.40;99.90;;;;;;5030273;28;20880;-84
2021/11/08 03:24:32;;;;;;;21.85;5.40;;;8.30;99.90;;;;;;5029530;28;20391;-83
2021/11/08 03:27:03;;;;;;;19.63;5.67;;;8.40;99.90;;;;;;5047729;28;20404;-84
2021/11/08 03:29:29;;;;;;;20.52;5.22;;;8.40;99.90;;;;;;5029743;28;20870;-84
2021/11/08 03:31:55;;;;;;;20.13;5.43;;;8.50;99.90;;;;;;5029881;28;20454;-83
2021/11/08 03:34:21;;;;;;;27.33;5.75;;;8.50;99.90;;;;;;5048431;28;20433;-83
2021/11/08 03:36:49;;;;;;;20.83;5.30;;;8.50;99.90;;;;;;5048105;28;20383;-84
2021/11/08 03:39:15;;;;;;;18.05;5.13;;;8.50;99.90;;;;;;5047053;28;20407;-84
2021/11/08 03:41:41;;;;;;;19.98;5.78;;;8.50;99.90;;;;;;5029630;28;20407;-83
2021/11/08 03:44:06;;;;;;;23.63;5.43;;;8.50;99.90;;;;;;5048012;28;20388;-84
2021/11/08 03:46:32;;;;;;;21.90;5.30;;;8.50;99.90;;;;;;5029640;28;20387;-83
2021/11/08 03:48:58;;;;;;;18.80;5.03;;;8.50;99.90;;;;;;5029389;28;20924;-84
2021/11/08 03:51:24;;;;;;;18.77;5.43;;;8.50;99.90;;;;;;5047746;28;20952;-85
2021/11/08 03:53:49;;;;;;;22.98;5.57;;;8.50;99.90;;;;;;5047393;28;20399;-83
2021/11/08 03:56:15;;;;;;;22.55;5.40;;;8.50;99.90;;;;;;5029395;28;20396;-83
2021/11/08 03:58:41;;;;;;;21.15;5.45;;;8.50;99.90;;;;;;5047606;28;20371;-84
2021/11/08 04:01:06;;;;;;;18.27;5.30;;;8.50;99.90;;;;;;5030341;28;20890;-84
2021/11/08 04:03:34;;;;;;;22.40;5.23;;;8.60;99.90;;;;;;5029447;28;20475;-84
2021/11/08 04:05:59;;;;;;;20.47;5.50;;;8.50;99.90;;;;;;5029737;28;20817;-83
2021/11/08 04:08:25;;;;;;;20.93;5.53;;;8.50;99.90;;;;;;5047130;28;20408;-83
2021/11/08 04:10:54;;;;;;;18.08;5.20;;;8.50;99.90;;;;;;5029768;28;20870;-84
2021/11/08 04:13:23;;;;;;;21.92;5.32;;;8.50;99.90;;;;;;5046420;28;20411;-83
2021/11/08 04:15:50;;;;;;;21.03;5.50;;;8.60;99.90;;;;;;5048139;28;20395;-83
2021/11/08 04:18:19;;;;;;;20.48;5.40;;;8.60;99.90;;;;;;5047495;28;20404;-83
2021/11/08 04:20:46;;;;;;;19.27;5.37;;;8.60;99.90;;;;;;5047613;28;20418;-83
2021/11/08 04:23:13;;;;;;;22.07;5.87;;;8.60;99.90;;;;;;5031394;28;20497;-83
2021/11/08 04:25:41;;;;;;;19.02;5.28;;;8.60;99.90;;;;;;5033238;28;20387;-83
2021/11/08 04:28:06;;;;;;;18.73;5.43;;;8.70;99.90;;;;;;5050112;28;20412;-83
2021/11/08 04:30:35;;;;;;;22.47;6.00;;;8.70;99.90;;;;;;5051156;28;20491;-83
2021/11/08 04:36:12;;;;;;;18.45;5.28;;;8.80;99.90;;;;;;5025978;28;20438;-85
2021/11/08 04:38:51;;;;;;;20.00;4.57;;;8.80;99.90;;;;;;5050749;28;20559;-84
2021/11/08 04:41:28;;;;;;;20.23;5.38;;;8.80;99.90;;;;;;5033258;28;20392;-83
2021/11/08 04:44:11;;;;;;;22.33;5.63;;;8.70;99.90;;;;;;5032604;28;20789;-83
2021/11/08 05:31:43;;;;;;;18.50;5.57;;;8.80;99.90;;;;;;5050055;28;20501;-85
2021/11/08 05:34:09;;;;;;;18.02;4.93;;;8.90;99.90;;;;;;5049076;28;20392;-84
2021/11/08 05:36:35;;;;;;;21.70;5.80;;;8.90;99.90;;;;;;5049449;28;20413;-83
2021/11/08 05:39:04;;;;;;;17.98;5.20;;;8.90;99.90;;;;;;5049862;28;20866;-84
2021/11/08 05:41:30;;;;;;;19.83;5.60;;;8.90;99.90;;;;;;5049856;28;20996;-83
2021/11/08 05:43:55;;;;;;;20.05;5.75;;;8.80;99.90;;;;;;5048907;28;20965;-83
2021/11/08 05:46:21;;;;;;;21.67;5.90;;;8.80;99.90;;;;;;5031432;28;20384;-83
2021/11/08 05:48:47;;;;;;;18.33;6.05;;;8.80;99.90;;;;;;5047073;28;20931;-84
2021/11/08 05:51:13;;;;;;;22.38;5.68;;;8.80;99.90;;;;;;5067595;28;20381;-84
2021/11/08 05:53:43;;;;;;;19.10;5.45;;;8.80;99.90;;;;;;5050089;28;20355;-83
2021/11/08 05:56:17;;;;;;;21.08;5.68;;;8.80;99.90;;;;;;5031420;28;20384;-83
2021/11/08 06:50:39;;;;;;;15.05;4.55;;;9.10;99.90;;;;;;5069263;28;20408;-83
2021/11/08 06:53:08;;;;;;;15.68;4.55;;;9.10;99.90;;;;;;5050787;28;20469;-84
2021/11/08 06:55:34;;;;;;;17.52;4.40;;;9.10;99.90;;;;;;5068989;28;20385;-84
2021/11/08 06:58:06;;;;;;;16.23;5.18;;;9.20;99.90;;;;;;5050429;28;20374;-84
2021/11/08 07:00:33;;;;;;;17.80;4.97;;;9.20;99.90;;;;;;5050858;28;20887;-85
2021/11/08 07:02:58;;;;;;;17.05;4.93;;;9.30;99.90;;;;;;5050812;28;20471;-84
2021/11/08 07:05:24;;;;;;;14.75;4.53;;;9.20;99.90;;;;;;5068106;28;20427;-83
2021/11/08 07:07:50;;;;;;;13.02;4.25;;;9.20;99.90;;;;;;5068899;28;20394;-83
2021/11/08 07:10:20;;;;;;;15.32;4.60;;;9.20;99.90;;;;;;5051159;28;20393;-82
2021/11/08 07:12:47;;;;;;;13.73;4.95;;;9.30;99.90;;;;;;5069839;28;20474;-84
2021/11/08 07:15:13;;;;;;;13.73;4.55;;;9.40;99.90;;;;;;5068164;28;20386;-83
2021/11/08 07:17:39;;;;;;;14.82;4.80;;;9.40;99.90;;;;;;5051823;28;20400;-81
2021/11/08 07:20:05;;;;;;;14.23;4.65;;;9.40;99.90;;;;;;5068716;28;20369;-82
2021/11/08 07:22:31;;;;;;;17.73;5.15;;;9.30;99.90;;;;;;5050543;28;20916;-83
2021/11/08 07:24:57;;;;;;;14.83;4.57;;;9.30;99.90;;;;;;5068690;28;20366;-82
2021/11/08 07:27:23;;;;;;;11.70;4.40;;;9.30;99.90;;;;;;5068821;28;20803;-82
2021/11/08 07:29:48;;;;;;;14.30;4.30;;;9.40;99.90;;;;;;5049967;28;20896;-83
2021/11/08 07:32:14;;;;;;;16.23;4.97;;;9.40;99.90;;;;;;5068627;28;20381;-83
2021/11/08 07:34:40;;;;;;;13.55;4.45;;;9.50;99.90;;;;;;5067991;28;20433;-81
2021/11/08 07:37:06;;;;;;;17.02;5.10;;;9.60;99.90;;;;;;5068569;28;20381;-83
2021/11/08 07:39:32;;;;;;;15.77;4.45;;;9.60;99.90;;;;;;5050240;28;20791;-83
2021/11/08 07:41:58;;;;;;;15.50;4.63;;;9.50;99.90;;;;;;5068711;28;20362;-82
2021/11/08 07:44:23;;;;;;;14.20;4.63;;;9.70;99.90;;;;;;5049963;28;20914;-83
2021/11/08 07:46:50;;;;;;;14.38;4.28;;;9.70;99.90;;;;;;5069458;28;20428;-84
2021/11/08 07:49:15;;;;;;;15.15;4.60;;;9.70;99.90;;;;;;5050315;28;20459;-82
2021/11/08 07:51:41;;;;;;;12.40;4.00;;;9.70;99.90;;;;;;5048034;28;20784;-82
2021/11/08 07:54:07;;;;;;;15.60;4.43;;;9.70;99.90;;;;;;5035574;28;20390;-84
2021/11/08 07:56:33;;;;;;;13.13;4.10;;;9.60;99.90;;;;;;5061918;28;20899;-83
2021/11/08 07:58:59;;;;;;;14.57;4.32;;;9.70;99.90;;;;;;5054711;28;20374;-83
2021/11/08 08:01:24;;;;;;;14.93;4.60;;;9.70;99.90;;;;;;5036835;28;20516;-84
2021/11/08 08:03:50;;;;;;;12.47;4.33;;;9.80;99.90;;;;;;5034198;28;20412;-84
2021/11/08 08:06:18;;;;;;;13.93;4.50;;;9.80;99.90;;;;;;5048848;28;20388;-83
2021/11/08 08:08:48;;;;;;;16.60;4.38;;;9.70;99.90;;;;;;5040900;28;20455;-83
2021/11/08 08:11:14;;;;;;;17.55;4.63;;;9.80;99.90;;;;;;5051021;28;20375;-82
2021/11/08 08:13:42;;;;;;;13.52;4.05;;;9.70;99.90;;;;;;5028092;28;20979;-84
2021/11/08 08:16:12;;;;;;;14.07;4.13;;;9.70;99.90;;;;;;5022443;28;20392;-85
2021/11/08 08:18:38;;;;;;;12.70;4.20;;;9.80;99.90;;;;;;5047425;28;20424;-83
2021/11/08 08:21:06;;;;;;;13.63;4.50;;;9.80;99.90;;;;;;5048085;28;20471;-84
2021/11/08 08:23:33;;;;;;;12.40;4.22;;;10.00;99.90;;;;;;5046094;28;20372;-85
2021/11/08 08:25:59;;;;;;;16.58;4.80;;;9.90;99.90;;;;;;5041380;28;20380;-83
2021/11/08 08:28:25;;;;;;;15.68;5.40;;;9.80;99.90;;;;;;5037068;28;20494;-84
2021/11/08 08:30:50;;;;;;;14.30;4.35;;;9.80;99.90;;;;;;5030341;28;20499;-83
2021/11/08 08:33:17;;;;;;;14.68;4.45;;;9.90;99.90;;;;;;5033144;28;20947;-84
2021/11/08 08:35:43;;;;;;;16.50;4.95;;;10.00;99.90;;;;;;5031462;28;20377;-84
2021/11/08 08:38:12;;;;;;;11.80;4.13;;;9.80;99.90;;;;;;5036704;28;20383;-85
2021/11/08 08:40:40;;;;;;;16.77;5.05;;;9.90;99.90;;;;;;5028992;28;21085;-83
2021/11/08 08:43:06;;;;;;;14.20;4.53;;;9.90;99.90;;;;;;5024335;28;20476;-83
2021/11/08 08:45:33;;;;;;;16.90;4.83;;;10.00;99.90;;;;;;5043154;28;20950;-84
2021/11/08 08:47:59;;;;;;;14.55;4.63;;;10.00;99.90;;;;;;5039467;28;20400;-84
2021/11/08 08:50:26;;;;;;;13.47;4.50;;;10.10;99.90;;;;;;5041941;28;20391;-81
2021/11/08 08:52:52;;;;;;;16.58;5.10;;;10.10;99.90;;;;;;5041977;28;20382;-84
2021/11/08 08:55:18;;;;;;;15.43;5.13;;;10.20;99.90;;;;;;5034315;28;20948;-84
2021/11/08 08:57:45;;;;;;;17.02;5.13;;;10.30;99.90;;;;;;5031266;28;20433;-84
2021/11/08 09:00:13;;;;;;;14.75;4.72;;;10.20;99.90;;;;;;5037820;28;20412;-83
2021/11/08 09:02:40;;;;;;;13.85;5.03;;;10.30;99.90;;;;;;5041978;28;20730;-84
2021/11/08 09:05:06;;;;;;;16.90;5.17;;;10.40;99.90;;;;;;5033666;28;20391;-84
2021/11/08 09:07:31;;;;;;;15.20;4.87;;;10.30;99.90;;;;;;5040321;28;20410;-83
2021/11/08 09:09:57;;;;;;;14.27;4.73;;;10.20;99.90;;;;;;5043647;28;20386;-84
2021/11/08 09:12:23;;;;;;;13.25;4.68;;;10.30;99.90;;;;;;5047267;28;20406;-83
2021/11/08 09:14:48;;;;;;;16.55;5.00;;;10.30;99.90;;;;;;5029239;28;20908;-83
2021/11/08 09:17:14;;;;;;;15.07;4.80;;;10.50;99.90;;;;;;5032303;28;20894;-84
2021/11/08 09:19:40;;;;;;;15.43;4.80;;;10.50;99.90;;;;;;5034626;28;21012;-83
2021/11/08 09:22:08;;;;;;;14.40;5.07;;;10.40;99.90;;;;;;5042690;28;20486;-84
2021/11/08 09:24:34;;;;;;;14.52;5.05;;;10.40;99.90;;;;;;5026243;28;20371;-84
2021/11/08 09:27:01;;;;;;;13.50;4.95;;;10.50;99.90;;;;;;5030776;28;20856;-83
2021/11/08 09:29:27;;;;;;;15.07;4.90;;;10.50;99.90;;;;;;5042750;28;20400;-83
2021/11/08 09:31:57;;;;;;;11.88;4.47;;;10.70;99.90;;;;;;5030580;28;20396;-83
2021/11/08 09:34:24;;;;;;;14.68;5.05;;;10.80;99.90;;;;;;5044012;28;20392;-84
2021/11/08 09:36:53;;;;;;;18.60;5.00;;;10.90;99.90;;;;;;5028731;28;20380;-84
2021/11/08 09:39:25;;;;;;;16.38;4.78;;;10.90;99.90;;;;;;5026963;28;20382;-83
2021/11/08 09:41:57;;;;;;;13.00;4.57;;;10.90;99.90;;;;;;5030421;28;20404;-83
2021/11/08 09:44:23;;;;;;;16.60;4.37;;;11.00;99.90;;;;;;5027210;28;20400;-84
2021/11/08 09:46:54;;;;;;;13.80;4.50;;;10.90;99.90;;;;;;5037637;28;20402;-83
2021/11/08 09:49:21;;;;;;;16.25;4.82;;;11.10;99.90;;;;;;5045032;28;20411;-83
2021/11/08 09:51:49;;;;;;;19.15;5.32;;;11.20;99.90;;;;;;5029264;28;20380;-83
2021/11/08 09:54:16;;;;;;;15.60;4.32;;;11.30;99.90;;;;;;5028031;28;20440;-83
2021/11/08 09:56:44;;;;;;;16.83;4.80;;;11.30;99.90;;;;;;5046504;28;20479;-83
2021/11/08 09:59:10;;;;;;;17.33;4.30;;;11.40;99.90;;;;;;5041322;28;20395;-83
2021/11/08 10:01:40;;;;;;;14.20;4.55;;;11.50;99.90;;;;;;5028837;28;20395;-83
2021/11/08 10:04:07;;;;;;;14.30;4.10;;;11.60;99.90;;;;;;5035369;28;20422;-84
2021/11/08 10:06:36;;;;;;;15.02;4.50;;;11.80;99.90;;;;;;5036387;28;20375;-84
2021/11/08 10:09:07;;;;;;;12.63;3.83;;;11.90;99.90;;;;;;5035929;28;20440;-84
2021/11/08 10:11:34;;;;;;;12.63;4.20;;;11.90;99.90;;;;;;5042692;28;20379;-83
2021/11/08 10:14:00;;;;;;;14.25;3.85;;;11.80;99.90;;;;;;5031656;28;20457;-84
2021/11/08 10:16:31;;;;;;;17.10;5.00;;;11.90;99.90;;;;;;5031164;28;20400;-81
2021/11/08 10:18:59;;;;;;;11.88;4.22;;;11.90;99.90;;;;;;5041095;28;20845;-81
2021/11/08 10:21:32;;;;;;;14.43;4.50;;;11.90;99.90;;;;;;5036287;28;20754;-81
2021/11/08 10:24:06;;;;;;;14.15;4.22;;;11.90;99.90;;;;;;5034848;28;20513;-82
2021/11/08 10:26:36;;;;;;;14.52;3.95;;;11.90;99.90;;;;;;5022888;28;20468;-85
2021/11/08 10:29:18;;;;;;;14.43;4.07;;;12.10;99.90;;;;;;5038116;28;20900;-81
2021/11/08 10:31:49;;;;;;;14.10;3.90;;;12.10;99.90;;;;;;5027455;28;20414;-82
2021/11/08 10:34:16;;;;;;;15.07;3.83;;;12.00;99.90;;;;;;5035513;28;20877;-82
2021/11/08 10:36:42;;;;;;;15.90;4.17;;;12.00;99.90;;;;;;5027990;28;20442;-83
2021/11/08 10:39:11;;;;;;;14.68;4.15;;;12.10;99.90;;;;;;5030577;28;20393;-83
2021/11/08 10:41:39;;;;;;;12.93;3.60;;;12.00;99.90;;;;;;5019076;28;20398;-82
2021/11/08 10:44:11;;;;;;;14.18;4.22;;;12.00;99.90;;;;;;5033520;28;20398;-83
2021/11/08 10:46:40;;;;;;;12.23;4.15;;;12.00;99.90;;;;;;5028988;28;20483;-82
2021/11/08 10:49:15;;;;;;;14.23;3.77;;;12.10;99.90;;;;;;5030108;28;20417;-83
2021/11/08 10:51:45;;;;;;;12.85;3.90;;;12.00;99.90;;;;;;5026747;28;20391;-83
2021/11/08 10:54:15;;;;;;;15.40;4.32;;;12.10;99.90;;;;;;5029009;28;20377;-84
2021/11/08 10:56:45;;;;;;;12.75;3.83;;;12.00;99.90;;;;;;5034118;28;20399;-83
2021/11/08 10:59:20;;;;;;;16.08;3.90;;;12.10;99.90;;;;;;5041220;28;20394;-83
2021/11/08 11:01:53;;;;;;;12.50;4.00;;;12.20;99.90;;;;;;5038196;28;20440;-83
2021/11/08 11:04:43;;;;;;;13.02;3.95;;;12.10;99.90;;;;;;5027214;28;20903;-83
2021/11/08 11:07:12;;;;;;;10.10;3.40;;;12.20;99.90;;;;;;5026656;28;20399;-83
2021/11/08 11:09:38;;;;;;;14.02;4.22;;;12.20;99.90;;;;;;5038550;28;20380;-84
2021/11/08 11:12:09;;;;;;;14.27;3.67;;;12.00;99.90;;;;;;5029909;28;20382;-83
2021/11/08 11:14:42;;;;;;;12.05;4.07;;;12.00;99.90;;;;;;5032297;28;20416;-84
2021/11/08 11:17:15;;;;;;;12.93;3.70;;;11.90;99.90;;;;;;5040296;28;20405;-84
2021/11/08 11:19:42;;;;;;;11.15;3.40;;;11.80;99.90;;;;;;5018069;28;20419;-83
2021/11/08 11:22:13;;;;;;;10.73;3.33;;;11.70;99.90;;;;;;5027878;28;20383;-83
2021/11/08 11:24:52;;;;;;;10.40;3.27;;;11.60;99.90;;;;;;5012346;28;20977;-83
2021/11/08 11:27:28;;;;;;;13.27;3.75;;;11.70;99.90;;;;;;5039061;28;20785;-83
2021/11/08 11:30:18;;;;;;;11.43;3.30;;;11.80;99.90;;;;;;5031317;28;20899;-81
2021/11/08 11:32:45;;;;;;;11.20;3.33;;;11.80;99.90;;;;;;5026332;28;20405;-83
2021/11/08 11:35:22;;;;;;;10.98;3.47;;;12.00;99.90;;;;;;5042415;28;20391;-83
2021/11/08 11:37:59;;;;;;;14.80;3.83;;;12.20;99.90;;;;;;5029214;28;20505;-83
2021/11/08 11:40:26;;;;;;;13.35;3.75;;;12.20;99.90;;;;;;5033128;28;20740;-84
2021/11/08 11:43:02;;;;;;;12.30;3.45;;;12.30;99.90;;;;;;5038520;28;20451;-82
2021/11/08 11:45:29;;;;;;;9.27;3.63;;;12.50;99.90;;;;;;5041190;28;20441;-83
2021/11/08 11:48:01;;;;;;;9.60;3.58;;;12.70;99.90;;;;;;5039817;28;20401;-82
2021/11/08 11:50:34;;;;;;;13.00;3.58;;;12.70;99.90;;;;;;5036677;28;20433;-83
2021/11/08 11:53:03;;;;;;;12.48;3.38;;;12.60;99.90;;;;;;5017095;28;20416;-84
2021/11/08 11:55:30;;;;;;;12.35;3.28;;;12.60;99.90;;;;;;5031243;28;20403;-83
2021/11/08 11:57:57;;;;;;;11.50;3.28;;;12.60;99.90;;;;;;5037813;28;20403;-83
2021/11/08 12:00:24;;;;;;;12.98;3.58;;;12.80;99.90;;;;;;5031151;28;20395;-84
2021/11/08 12:02:51;;;;;;;11.55;3.35;;;12.80;99.90;;;;;;5043680;28;20403;-83
2021/11/08 12:05:17;;;;;;;13.60;3.22;;;12.70;99.90;;;;;;5030357;28;20475;-83
2021/11/08 12:07:43;;;;;;;12.13;3.57;;;12.70;99.90;;;;;;5048354;28;20491;-83
2021/11/08 12:10:09;;;;;;;12.07;3.13;;;12.80;99.90;;;;;;5030579;28;20413;-84
2021/11/08 12:12:36;;;;;;;11.57;3.30;;;12.90;99.90;;;;;;5040858;28;20860;-81
2021/11/08 12:15:07;;;;;;;12.50;3.58;;;12.80;99.90;;;;;;5031342;28;20719;-81
2021/11/08 12:17:40;;;;;;;12.20;3.20;;;12.70;99.90;;;;;;5031549;28;20474;-84
2021/11/08 12:20:09;;;;;;;10.57;2.95;;;12.60;99.90;;;;;;5039924;28;20470;-84
2021/11/08 12:22:35;;;;;;;11.75;3.35;;;12.50;99.90;;;;;;5035894;28;20417;-83
2021/11/08 12:25:14;;;;;;;10.80;3.38;;;12.50;99.90;;;;;;5038031;28;20377;-84
2021/11/08 12:27:50;;;;;;;10.45;3.17;;;12.40;99.90;;;;;;5015604;28;20417;-83
2021/11/08 12:30:32;;;;;;;13.80;3.80;;;12.40;99.90;;;;;;5042313;28;20958;-82
2021/11/08 12:33:06;;;;;;;11.30;3.17;;;12.40;99.90;;;;;;5047401;28;20392;-83
2021/11/08 12:35:40;;;;;;;14.65;3.30;;;12.30;99.90;;;;;;5035611;28;20415;-81
2021/11/08 12:38:51;;;;;;;12.90;2.90;;;12.20;99.90;;;;;;5052599;28;20372;-83
2021/11/08 12:41:27;;;;;;;10.02;3.05;;;12.20;99.90;;;;;;4987088;28;20482;-84
2021/11/08 12:43:58;;;;;;;9.90;3.03;;;12.10;99.90;;;;;;4984216;28;20397;-82
2021/11/08 12:46:39;;;;;;;11.23;3.20;;;12.20;99.90;;;;;;5014287;28;20446;-83
2021/11/08 12:49:21;;;;;;;9.02;3.50;;;12.20;99.90;;;;;;5021960;28;20403;-83
2021/11/08 12:51:52;;;;;;;10.27;3.30;;;12.40;99.90;;;;;;5032790;28;20415;-83
2021/11/08 12:54:18;;;;;;;12.18;3.55;;;12.50;99.90;;;;;;5036725;28;20404;-83
2021/11/08 12:56:46;;;;;;;13.32;3.35;;;12.50;99.90;;;;;;5049698;28;20945;-81
2021/11/08 12:59:14;;;;;;;11.05;3.28;;;12.50;99.90;;;;;;5023318;28;20386;-83
2021/11/08 13:01:56;;;;;;;11.67;3.47;;;12.70;99.90;;;;;;5034681;28;20387;-83
2021/11/08 13:04:31;;;;;;;13.10;3.40;;;12.80;99.90;;;;;;5025880;28;20455;-82
2021/11/08 13:07:05;;;;;;;11.98;3.70;;;12.70;99.90;;;;;;5029954;28;20451;-82
2021/11/08 13:09:39;;;;;;;8.98;3.08;;;12.70;99.90;;;;;;5044917;28;20399;-82
2021/11/08 13:12:12;;;;;;;10.80;3.03;;;12.60;99.90;;;;;;5031719;28;20919;-81
2021/11/08 13:14:38;;;;;;;12.52;3.13;;;12.60;99.90;;;;;;5044720;28;20387;-81
2021/11/08 13:17:10;;;;;;;14.05;3.42;;;12.50;99.90;;;;;;5033623;28;20384;-83
2021/11/08 13:20:00;;;;;;;10.70;2.92;;;12.40;99.90;;;;;;5040020;28;20404;-83
2021/11/08 13:22:35;;;;;;;10.60;3.05;;;12.40;99.90;;;;;;5033575;28;20373;-83
2021/11/08 13:25:04;;;;;;;11.60;3.20;;;12.30;99.90;;;;;;5031919;28;20407;-82
2021/11/08 13:27:30;;;;;;;12.07;2.95;;;12.30;99.90;;;;;;5046078;28;20400;-83
2021/11/08 13:29:58;;;;;;;13.83;3.63;;;12.30;99.90;;;;;;5035509;28;20438;-83
2021/11/08 13:32:29;;;;;;;14.63;3.50;;;12.30;99.90;;;;;;5028134;28;20398;-83
2021/11/08 13:34:57;;;;;;;12.13;3.55;;;12.30;99.90;;;;;;5031526;28;20475;-82
2021/11/08 13:37:36;;;;;;;13.05;3.53;;;12.30;99.90;;;;;;5042206;28;20742;-83
2021/11/08 13:40:22;;;;;;;10.32;3.17;;;12.20;99.90;;;;;;5043185;28;20442;-82
2021/11/08 13:42:51;;;;;;;10.38;3.13;;;12.10;99.90;;;;;;5035230;28;20475;-81
2021/11/08 13:45:18;;;;;;;13.37;3.57;;;12.10;99.90;;;;;;5032261;28;20431;-82
2021/11/08 13:47:46;;;;;;;12.57;3.50;;;12.00;99.90;;;;;;5049493;28;20408;-82
2021/11/08 13:50:20;;;;;;;13.70;3.80;;;12.10;99.90;;;;;;5016294;28;20456;-83
2021/11/08 13:52:46;;;;;;;11.80;2.90;;;12.10;99.90;;;;;;5032782;28;20387;-83
2021/11/08 13:55:15;;;;;;;11.82;3.30;;;12.10;99.90;;;;;;5019969;28;20379;-83
2021/11/08 13:57:43;;;;;;;12.23;3.33;;;12.00;99.90;;;;;;5050026;28;20372;-83
2021/11/08 14:00:17;;;;;;;10.25;3.28;;;12.00;99.90;;;;;;5049518;28;20451;-83
2021/11/08 14:02:43;;;;;;;14.70;4.03;;;12.00;99.90;;;;;;5049257;28;20391;-83
2021/11/08 14:05:10;;;;;;;11.95;3.60;;;11.90;99.90;;;;;;5031684;28;20427;-83
2021/11/08 14:07:36;;;;;;;10.50;3.47;;;11.90;99.90;;;;;;5031233;28;20404;-83
2021/11/08 14:10:06;;;;;;;11.65;3.20;;;11.90;99.90;;;;;;5049184;28;20450;-83
2021/11/08 14:12:32;;;;;;;11.77;3.67;;;11.90;99.90;;;;;;5031574;28;20870;-83
2021/11/08 14:15:00;;;;;;;11.13;3.30;;;11.80;99.90;;;;;;5049734;28;20376;-83
2021/11/08 14:17:32;;;;;;;9.18;3.22;;;11.70;99.90;;;;;;5049161;28;20734;-83
2021/11/08 14:20:01;;;;;;;13.40;3.65;;;11.70;99.90;;;;;;5032317;28;20387;-83
2021/11/08 14:22:29;;;;;;;11.10;3.38;;;11.70;99.90;;;;;;5049437;28;20420;-83
2021/11/08 14:24:57;;;;;;;12.57;4.07;;;11.70;99.90;;;;;;5031710;28;20383;-83
2021/11/08 14:27:26;;;;;;;13.68;4.53;;;11.70;99.90;;;;;;5028542;28;20395;-83
2021/11/08 14:29:52;;;;;;;14.97;4.43;;;11.70;99.90;;;;;;5018230;28;20407;-83
2021/11/08 14:32:29;;;;;;;11.93;3.87;;;11.60;99.90;;;;;;5028744;28;20406;-83
2021/11/08 14:35:10;;;;;;;14.87;4.07;;;11.70;99.90;;;;;;5028473;28;20523;-83
2021/11/08 14:38:03;;;;;;;11.90;3.47;;;11.60;99.90;;;;;;5037700;28;20388;-83
2021/11/08 14:40:38;;;;;;;12.38;3.15;;;11.60;99.90;;;;;;5035983;28;20391;-82
2021/11/08 14:43:22;;;;;;;10.95;3.75;;;11.60;99.90;;;;;;5042874;28;20444;-83